TED STEVENS ANCHORAGE INTL

PANC (ANC)
Anchorage, Alaska
Towered

Vatsim Metar:
PANC 020253Z 35014G21KT 10SM FEW100 M08/M19 A2984 RMK AO2 PK WND 35033/0215 SLP109 T10781189 51013

No ATC Online

Traffic

Inbound:
Ident
Type
Name
ETA
Phase
TRNST21
PC12
Steve K PAMR
Deplaning
UAL23
B762
Aaron N KHEF
05:08 Z
Climb

Outbound:
Ident
Type
Name
Destination
Phase